»·PEaware :: N132KT KSNA-2AZ1

N132KT :: KSNA-2AZ1

FLIGHT INFORMATION

Flight Status: Arrived
Operator: Privately registered:
United States
More flights under this callsign
Pilot: Keith S. (1)
Aircraft: BEECH AIRCRAFT BARON
(BE58)
More flights by this aircraft type
Origin: KSNA John Wayne-Orange Co
United States
Destination: 2AZ1 Indian Hills Airpark
United States
More flights between these airports :: More routes between these airports
Route:
File this flight plan on PilotEdge
Remarks:
Altitude:
(Current/Filed)
9,500ft
Speed:
(Current/Filed)
180kts
Departed: 06-Sep-19 10:41 AM
Arrived: 06-Sep-19 11:52 AM
Distance/Time
Traveled:
212nm/1:10
Distance/Time
To Go:
Arrived

Flight Plot

Page will automatically refresh every two minutes.

Flight plan parsing failed; only flown route is shown


Map Options




Map Legend


Flown Route
Filed Route
Departure Airport
Arrival Airport
Navaid (VOR, NDB)
Fix

Horizontal Profiles

Position Reports

Time Latitude Longitude Heading Altitude Ground
Speed
06-Sep-19 10:30 33.675762 -117.871524 220 60ft 0kts
06-Sep-19 10:31 33.675762 -117.871524 220 60ft 0kts
06-Sep-19 10:32 33.675762 -117.871524 220 60ft 0kts
06-Sep-19 10:33 33.675762 -117.871524 220 60ft 0kts
06-Sep-19 10:34 33.675762 -117.871524 220 60ft 0kts
06-Sep-19 10:35 33.675762 -117.871524 220 60ft 0kts
06-Sep-19 10:36 33.675362 -117.871104 129 60ft 0kts
06-Sep-19 10:37 33.675188 -117.870813 104 60ft 10kts
06-Sep-19 10:39 33.681283 -117.866702 97 60ft 13kts
06-Sep-19 10:40 33.680466 -117.865816 206 60ft 31kts
06-Sep-19 10:41 33.651690 -117.879035 163 835ft 136kts
06-Sep-19 10:42 33.641298 -117.835383 91 1972ft 148kts
06-Sep-19 10:43 33.642649 -117.786149 85 3139ft 148kts
06-Sep-19 10:44 33.644925 -117.736635 85 4256ft 149kts
06-Sep-19 10:45 33.647159 -117.686467 85 5331ft 151kts
06-Sep-19 10:46 33.649378 -117.635958 85 6353ft 152kts
06-Sep-19 10:47 33.651642 -117.583646 85 7183ft 157kts
06-Sep-19 10:48 33.653719 -117.535248 85 7520ft 169kts
06-Sep-19 10:49 33.656220 -117.476024 85 7524ft 182kts
06-Sep-19 10:50 33.658796 -117.414622 85 7534ft 185kts
06-Sep-19 10:51 33.661372 -117.352609 85 7546ft 185kts
06-Sep-19 10:52 33.663923 -117.290475 86 7546ft 185kts
06-Sep-19 10:53 33.666431 -117.228606 86 7546ft 185kts
06-Sep-19 10:54 33.668914 -117.166575 86 7546ft 185kts
06-Sep-19 10:55 33.671369 -117.104538 86 7543ft 186kts
06-Sep-19 10:56 33.673820 -117.042053 86 7515ft 188kts
06-Sep-19 10:57 33.676264 -116.978801 87 7486ft 190kts
06-Sep-19 10:58 33.678701 -116.914799 88 7462ft 191kts
06-Sep-19 10:58 33.680633 -116.863907 89 7831ft 178kts
06-Sep-19 11:00 33.683155 -116.795002 89 8207ft 176kts
06-Sep-19 11:01 33.685302 -116.736133 89 8511ft 177kts
06-Sep-19 11:01 33.687079 -116.686880 89 8760ft 177kts
06-Sep-19 11:03 33.689542 -116.617697 89 9101ft 177kts
06-Sep-19 11:04 33.691626 -116.558319 89 9405ft 176kts
06-Sep-19 11:04 33.693360 -116.507631 89 9431ft 187kts
06-Sep-19 11:05 33.695523 -116.444490 89 9424ft 190kts
06-Sep-19 11:07 33.698030 -116.370044 89 9417ft 190kts
06-Sep-19 11:07 33.699798 -116.316703 89 9408ft 190kts
06-Sep-19 11:08 33.701879 -116.252943 89 9399ft 190kts
06-Sep-19 11:09 33.703925 -116.189243 89 9390ft 191kts
06-Sep-19 11:10 33.705948 -116.125379 89 9384ft 191kts
06-Sep-19 11:11 33.707935 -116.061582 89 9384ft 191kts
06-Sep-19 11:12 33.709882 -115.997888 89 9376ft 191kts
06-Sep-19 11:13 33.711812 -115.933734 89 9376ft 191kts
06-Sep-19 11:14 33.713701 -115.869807 89 9376ft 191kts
06-Sep-19 11:15 33.715560 -115.805759 89 9376ft 191kts
06-Sep-19 11:16 33.717393 -115.741491 89 9376ft 191kts
06-Sep-19 11:17 33.719187 -115.677409 89 9376ft 192kts
06-Sep-19 11:18 33.720947 -115.613369 89 9376ft 192kts
06-Sep-19 11:19 33.722679 -115.549122 89 9376ft 192kts
06-Sep-19 11:20 33.724381 -115.484773 89 9376ft 192kts
06-Sep-19 11:21 33.726042 -115.420701 89 9378ft 192kts
06-Sep-19 11:22 33.727676 -115.356380 89 9388ft 192kts
06-Sep-19 11:23 33.729275 -115.292225 89 9396ft 191kts
06-Sep-19 11:24 33.730830 -115.228410 89 9405ft 191kts
06-Sep-19 11:25 33.732353 -115.164349 89 9411ft 191kts
06-Sep-19 11:26 33.733844 -115.100344 89 9411ft 191kts
06-Sep-19 11:27 33.735307 -115.036254 89 9411ft 190kts
06-Sep-19 11:28 33.736731 -114.972459 89 9412ft 190kts
06-Sep-19 11:29 33.738123 -114.908784 89 9412ft 190kts
06-Sep-19 11:30 33.739474 -114.845347 89 9412ft 190kts
06-Sep-19 11:31 33.740797 -114.781676 89 9412ft 190kts
06-Sep-19 11:32 33.742086 -114.718000 89 9412ft 190kts
06-Sep-19 11:33 33.743344 -114.654252 89 9412ft 190kts
06-Sep-19 11:34 33.744570 -114.590470 89 9412ft 190kts
06-Sep-19 11:35 33.745760 -114.526886 89 9412ft 190kts
06-Sep-19 11:36 33.746917 -114.463236 89 9412ft 190kts
06-Sep-19 11:37 33.748040 -114.399781 89 9413ft 190kts
06-Sep-19 11:38 33.749135 -114.336051 89 9411ft 190kts
06-Sep-19 11:39 33.750200 -114.272128 89 9411ft 190kts
06-Sep-19 11:40 33.751224 -114.208645 89 9411ft 190kts
06-Sep-19 11:41 33.752205 -114.144974 89 9411ft 190kts
06-Sep-19 11:42 33.753165 -114.081410 89 9411ft 190kts
06-Sep-19 11:43 33.754095 -114.017705 89 9411ft 190kts
06-Sep-19 11:44 33.754990 -113.954238 89 9412ft 190kts
06-Sep-19 11:45 33.755894 -113.886064 89 8700ft 212kts
06-Sep-19 11:46 33.756827 -113.814515 88 7932ft 217kts
06-Sep-19 11:47 33.757741 -113.740575 88 6779ft 222kts
06-Sep-19 11:48 33.758624 -113.665981 88 5668ft 221kts
06-Sep-19 11:49 33.759832 -113.592483 87 4587ft 217kts
06-Sep-19 11:50 33.753324 -113.597326 298 2809ft 120kts
06-Sep-19 11:51 33.760221 -113.618433 291 1874ft 0kts

Navigation Log

Ident Type
Flight plan parsing failed, navigation log unavailable